Elliottsburg, Pennsylvania
Current Conditions -  °F | °C
As of 1:56 PM on Thursday 30 Oct 2014 (Local Time) from KCXY Reporting Station
Overcast Overcast  
Wind Chill: 54°   Ceiling: 5500
Heat Index: 54°   Visibility: 10mi
Dew Point: 37°   Wind: 7mph
Humidity: 53%   Direction: NA
Pressure: 30.04"   Gusts: NA
Location:  40.39°N, 77.29°W
Report Text: KCXY 301756Z VRB06KT 10SM OVC055 12/03 A3004 RMK AO2 SLP173 T01220028 10133 20061 58009
Loading
Personal Weather Stations






























Interactive Weather Map
Tropical Storm Tracking
New forecast layout! Learn more

10-Day Weather Forecast

Advertisements
Track Severe Weather on mobile